RSF5004 OERK-OEGS
Flight info
| Callsign | RSF5004 |
|---|---|
| Flight time | 1h 9m |
| Altitude | 18000 |
| Route | OERK/15L IVONU Z710 GAS |
| Aircraft | B350/L-SBGRY/S |
Departure
| Time | 2026-04-21 19:25 |
|---|---|
| Airport | King Khalid International Airport (OERK) |
Arrival
| Time | 2026-04-21 20:35 |
|---|---|
| Airport | Prince Naif bin Abdulaziz International Airport (OEGS) |
| Time | Latitude | Longitude | Altitude | Speed | Heading |
|---|---|---|---|---|---|
| 2026-04-21 19:12 | 24.96375 | 46.72256 | 2026 ft | 0 kts | 330° |
| 2026-04-21 19:16 | 24.96379 | 46.72253 | 2026 ft | 6 kts | 329° |
| 2026-04-21 19:16 | 24.96439 | 46.72214 | 2027 ft | 12 kts | 330° |
| 2026-04-21 19:17 | 24.96547 | 46.72076 | 2033 ft | 15 kts | 240° |
| 2026-04-21 19:17 | 24.96491 | 46.71969 | 2025 ft | 17 kts | 238° |
| 2026-04-21 19:17 | 24.96430 | 46.71851 | 2031 ft | 18 kts | 240° |
| 2026-04-21 19:18 | 24.96476 | 46.71756 | 2028 ft | 17 kts | 328° |
| 2026-04-21 19:18 | 24.96587 | 46.71685 | 2026 ft | 19 kts | 332° |
| 2026-04-21 19:18 | 24.96709 | 46.71606 | 2025 ft | 21 kts | 330° |
| 2026-04-21 19:18 | 24.96843 | 46.71523 | 2025 ft | 23 kts | 329° |
| 2026-04-21 19:19 | 24.96986 | 46.71433 | 2024 ft | 24 kts | 329° |
| 2026-04-21 19:19 | 24.97137 | 46.71338 | 2024 ft | 26 kts | 330° |
| 2026-04-21 19:19 | 24.97290 | 46.71241 | 2024 ft | 23 kts | 331° |
| 2026-04-21 19:19 | 24.97407 | 46.71167 | 2024 ft | 16 kts | 329° |
| 2026-04-21 19:20 | 24.97400 | 46.71057 | 2024 ft | 17 kts | 249° |
| 2026-04-21 19:20 | 24.97342 | 46.70939 | 2024 ft | 18 kts | 240° |
| 2026-04-21 19:20 | 24.97279 | 46.70819 | 2029 ft | 17 kts | 242° |
| 2026-04-21 19:20 | 24.97227 | 46.70721 | 2024 ft | 13 kts | 240° |
| 2026-04-21 19:21 | 24.97211 | 46.70688 | 2024 ft | 0 kts | 240° |
| 2026-04-21 19:21 | 24.97190 | 46.70653 | 2024 ft | 12 kts | 236° |
| 2026-04-21 19:21 | 24.97142 | 46.70559 | 2024 ft | 12 kts | 234° |
| 2026-04-21 19:22 | 24.97086 | 46.70580 | 2024 ft | 19 kts | 151° |
| 2026-04-21 19:22 | 24.96779 | 46.70774 | 2027 ft | 82 kts | 151° |
| 2026-04-21 19:22 | 24.96158 | 46.71166 | 2173 ft | 120 kts | 149° |
| 2026-04-21 19:22 | 24.95372 | 46.71663 | 2609 ft | 130 kts | 149° |
| 2026-04-21 19:23 | 24.94479 | 46.72179 | 2634 ft | 153 kts | 155° |
| 2026-04-21 19:23 | 24.93558 | 46.72623 | 2366 ft | 140 kts | 156° |
| 2026-04-21 19:23 | 24.92938 | 46.73138 | 2451 ft | 100 kts | 97° |
| 2026-04-21 19:23 | 24.93299 | 46.73647 | 2406 ft | 92 kts | 15° |
| 2026-04-21 19:24 | 24.93937 | 46.73595 | 2428 ft | 83 kts | 344° |
| 2026-04-21 19:24 | 24.94447 | 46.73353 | 2411 ft | 78 kts | 339° |
| 2026-04-21 19:24 | 24.94952 | 46.73136 | 2360 ft | 78 kts | 342° |
| 2026-04-21 19:24 | 24.95476 | 46.72906 | 2388 ft | 85 kts | 339° |
| 2026-04-21 19:25 | 24.96034 | 46.72649 | 2463 ft | 89 kts | 336° |
| 2026-04-21 19:25 | 24.96597 | 46.72344 | 2520 ft | 91 kts | 333° |
| 2026-04-21 19:25 | 24.97167 | 46.72019 | 2604 ft | 91 kts | 336° |
| 2026-04-21 19:25 | 24.97726 | 46.71690 | 2674 ft | 93 kts | 331° |
| 2026-04-21 19:26 | 24.98305 | 46.71341 | 2645 ft | 92 kts | 337° |
| 2026-04-21 19:26 | 24.98894 | 46.71056 | 2576 ft | 92 kts | 336° |
| 2026-04-21 19:26 | 24.99222 | 46.70551 | 2680 ft | 80 kts | 269° |
| 2026-04-21 19:26 | 24.98955 | 46.70060 | 2779 ft | 77 kts | 210° |
| 2026-04-21 19:27 | 24.98392 | 46.69920 | 2619 ft | 95 kts | 168° |
| 2026-04-21 19:27 | 24.97757 | 46.70164 | 2271 ft | 94 kts | 152° |
| 2026-04-21 19:27 | 24.97226 | 46.70492 | 2068 ft | 86 kts | 149° |
| 2026-04-21 19:27 | 24.96745 | 46.70796 | 2025 ft | 70 kts | 150° |
| 2026-04-21 19:28 | 24.96381 | 46.71028 | 2025 ft | 52 kts | 147° |
| 2026-04-21 19:28 | 24.96186 | 46.71268 | 2029 ft | 35 kts | 107° |
| 2026-04-21 19:28 | 24.96216 | 46.71445 | 2025 ft | 20 kts | 59° |
| 2026-04-21 19:28 | 24.96257 | 46.71522 | 2025 ft | 0 kts | 58° |
| 2026-04-21 19:31 | 24.96273 | 46.71553 | 2025 ft | 14 kts | 60° |
| 2026-04-21 19:31 | 24.96338 | 46.71679 | 2025 ft | 24 kts | 60° |
| 2026-04-21 19:31 | 24.96448 | 46.71771 | 2025 ft | 23 kts | 329° |
| 2026-04-21 19:31 | 24.96611 | 46.71670 | 2025 ft | 31 kts | 330° |
| 2026-04-21 19:32 | 24.96804 | 46.71548 | 2025 ft | 33 kts | 330° |
| 2026-04-21 19:32 | 24.97002 | 46.71424 | 2024 ft | 33 kts | 329° |
| 2026-04-21 19:32 | 24.97202 | 46.71297 | 2024 ft | 33 kts | 330° |
| 2026-04-21 19:32 | 24.97387 | 46.71180 | 2024 ft | 25 kts | 330° |
| 2026-04-21 19:33 | 24.97414 | 46.71082 | 2024 ft | 23 kts | 246° |
| 2026-04-21 19:33 | 24.97303 | 46.70865 | 2024 ft | 25 kts | 238° |
| 2026-04-21 19:33 | 24.97222 | 46.70711 | 2024 ft | 17 kts | 239° |
| 2026-04-21 19:33 | 24.97210 | 46.70688 | 2024 ft | 0 kts | 241° |
| 2026-04-21 19:36 | 24.97191 | 46.70655 | 2029 ft | 15 kts | 234° |
| 2026-04-21 19:36 | 24.97145 | 46.70563 | 2024 ft | 9 kts | 236° |
| 2026-04-21 19:36 | 24.97106 | 46.70567 | 2024 ft | 0 kts | 149° |
| 2026-04-21 19:38 | 24.97077 | 46.70587 | 2024 ft | 25 kts | 150° |
| 2026-04-21 19:38 | 24.96889 | 46.70704 | 2029 ft | 68 kts | 148° |
| 2026-04-21 19:38 | 24.96102 | 46.71201 | 2310 ft | 109 kts | 149° |
| 2026-04-21 19:39 | 24.95366 | 46.71641 | 2544 ft | 140 kts | 154° |
| 2026-04-21 19:39 | 24.94556 | 46.72135 | 3314 ft | 121 kts | 146° |
| 2026-04-21 19:39 | 24.93913 | 46.72667 | 3949 ft | 115 kts | 136° |
| 2026-04-21 19:39 | 24.93303 | 46.73255 | 4478 ft | 117 kts | 139° |
| 2026-04-21 19:40 | 24.92678 | 46.73814 | 5012 ft | 118 kts | 149° |
| 2026-04-21 19:40 | 24.91864 | 46.73898 | 5442 ft | 124 kts | 192° |
| 2026-04-21 19:40 | 24.91156 | 46.73379 | 5911 ft | 126 kts | 232° |
| 2026-04-21 19:40 | 24.90916 | 46.72438 | 6308 ft | 137 kts | 273° |
| 2026-04-21 19:41 | 24.91083 | 46.71350 | 6693 ft | 150 kts | 277° |
| 2026-04-21 19:41 | 24.91253 | 46.70176 | 7091 ft | 160 kts | 277° |
| 2026-04-21 19:41 | 24.91437 | 46.68930 | 7489 ft | 169 kts | 277° |
| 2026-04-21 19:41 | 24.91628 | 46.67615 | 7884 ft | 178 kts | 276° |
| 2026-04-21 19:42 | 24.91826 | 46.66243 | 8278 ft | 185 kts | 276° |
| 2026-04-21 19:42 | 24.92032 | 46.64819 | 8664 ft | 191 kts | 276° |
| 2026-04-21 19:42 | 24.92243 | 46.63357 | 9049 ft | 196 kts | 276° |
| 2026-04-21 19:42 | 24.92457 | 46.61862 | 9431 ft | 199 kts | 276° |
| 2026-04-21 19:43 | 24.92676 | 46.60340 | 9813 ft | 202 kts | 276° |
| 2026-04-21 19:43 | 24.92896 | 46.58808 | 10193 ft | 203 kts | 276° |
| 2026-04-21 19:43 | 24.93116 | 46.57266 | 10572 ft | 204 kts | 276° |
| 2026-04-21 19:43 | 24.93334 | 46.55743 | 10946 ft | 204 kts | 275° |
| 2026-04-21 19:44 | 24.93557 | 46.54182 | 11328 ft | 203 kts | 275° |
| 2026-04-21 19:44 | 24.93776 | 46.52648 | 11704 ft | 202 kts | 274° |
| 2026-04-21 19:44 | 24.93994 | 46.51123 | 12079 ft | 201 kts | 274° |
| 2026-04-21 19:44 | 24.94209 | 46.49605 | 12455 ft | 200 kts | 274° |
| 2026-04-21 19:45 | 24.94424 | 46.48094 | 12828 ft | 199 kts | 274° |
| 2026-04-21 19:45 | 24.94636 | 46.46594 | 13202 ft | 198 kts | 274° |
| 2026-04-21 19:45 | 24.94848 | 46.45098 | 13575 ft | 197 kts | 274° |
| 2026-04-21 19:45 | 24.95060 | 46.43608 | 13950 ft | 197 kts | 274° |
| 2026-04-21 19:46 | 24.95271 | 46.42122 | 14321 ft | 196 kts | 274° |
| 2026-04-21 19:46 | 24.95477 | 46.40666 | 14688 ft | 194 kts | 274° |
| 2026-04-21 19:46 | 24.95685 | 46.39200 | 15064 ft | 193 kts | 274° |
| 2026-04-21 19:46 | 24.95891 | 46.37736 | 15433 ft | 193 kts | 274° |
| 2026-04-21 19:47 | 24.96096 | 46.36283 | 15806 ft | 192 kts | 274° |
| 2026-04-21 19:47 | 24.96301 | 46.34831 | 16178 ft | 192 kts | 274° |
| 2026-04-21 19:47 | 24.96506 | 46.33381 | 16552 ft | 191 kts | 274° |
| 2026-04-21 19:47 | 24.96710 | 46.31937 | 16924 ft | 191 kts | 275° |
| 2026-04-21 19:48 | 24.96913 | 46.30497 | 17298 ft | 190 kts | 275° |
| 2026-04-21 19:48 | 24.97115 | 46.29059 | 17672 ft | 189 kts | 274° |
| 2026-04-21 19:48 | 24.97317 | 46.27619 | 17931 ft | 195 kts | 275° |
| 2026-04-21 19:48 | 24.97532 | 46.26090 | 17936 ft | 208 kts | 275° |
| 2026-04-21 19:49 | 24.97762 | 46.24476 | 17941 ft | 218 kts | 275° |
| 2026-04-21 19:49 | 24.98000 | 46.22793 | 17944 ft | 225 kts | 275° |
| 2026-04-21 19:49 | 24.98161 | 46.21657 | 17945 ft | 228 kts | 275° |
| 2026-04-21 19:49 | 24.98491 | 46.19317 | 17943 ft | 233 kts | 275° |
| 2026-04-21 19:50 | 24.98655 | 46.18145 | 17943 ft | 235 kts | 275° |
| 2026-04-21 19:50 | 24.98905 | 46.16361 | 17942 ft | 236 kts | 275° |
| 2026-04-21 19:50 | 24.99156 | 46.14568 | 17943 ft | 237 kts | 275° |
| 2026-04-21 19:50 | 24.99407 | 46.12768 | 17941 ft | 238 kts | 275° |
| 2026-04-21 19:51 | 24.99660 | 46.10965 | 17942 ft | 238 kts | 275° |
| 2026-04-21 19:51 | 24.99911 | 46.09157 | 17941 ft | 239 kts | 275° |
| 2026-04-21 19:51 | 25.00164 | 46.07345 | 17938 ft | 239 kts | 275° |
| 2026-04-21 19:51 | 25.00416 | 46.05530 | 17937 ft | 240 kts | 275° |
| 2026-04-21 19:52 | 25.00670 | 46.03711 | 17938 ft | 240 kts | 275° |
| 2026-04-21 19:52 | 25.00923 | 46.01888 | 17935 ft | 241 kts | 275° |
| 2026-04-21 19:52 | 25.01177 | 46.00052 | 17936 ft | 244 kts | 275° |
| 2026-04-21 19:52 | 25.01437 | 45.98187 | 17936 ft | 247 kts | 275° |
| 2026-04-21 19:53 | 25.01700 | 45.96305 | 17934 ft | 249 kts | 275° |
| 2026-04-21 19:53 | 25.01960 | 45.94421 | 17938 ft | 250 kts | 275° |
| 2026-04-21 19:53 | 25.02223 | 45.92523 | 17938 ft | 251 kts | 275° |
| 2026-04-21 19:53 | 25.02487 | 45.90617 | 17937 ft | 252 kts | 275° |
| 2026-04-21 19:54 | 25.02746 | 45.88732 | 17936 ft | 252 kts | 275° |
| 2026-04-21 19:54 | 25.03013 | 45.86792 | 17935 ft | 253 kts | 275° |
| 2026-04-21 19:54 | 25.03275 | 45.84901 | 17938 ft | 253 kts | 275° |
| 2026-04-21 19:54 | 25.03539 | 45.82986 | 17931 ft | 253 kts | 275° |
| 2026-04-21 19:55 | 25.03801 | 45.81070 | 17934 ft | 252 kts | 275° |
| 2026-04-21 19:55 | 25.04065 | 45.79157 | 17930 ft | 252 kts | 275° |
| 2026-04-21 19:55 | 25.04327 | 45.77245 | 17921 ft | 253 kts | 275° |
| 2026-04-21 19:55 | 25.04589 | 45.75327 | 17926 ft | 253 kts | 275° |
| 2026-04-21 19:56 | 25.04851 | 45.73412 | 17922 ft | 252 kts | 275° |
| 2026-04-21 19:56 | 25.05114 | 45.71499 | 17928 ft | 252 kts | 275° |
| 2026-04-21 19:56 | 25.05377 | 45.69579 | 17926 ft | 253 kts | 275° |
| 2026-04-21 19:56 | 25.05638 | 45.67663 | 17928 ft | 253 kts | 275° |
| 2026-04-21 19:57 | 25.06106 | 45.65791 | 17945 ft | 261 kts | 292° |
| 2026-04-21 19:57 | 25.07309 | 45.64241 | 17944 ft | 272 kts | 309° |
| 2026-04-21 19:57 | 25.08700 | 45.62825 | 17938 ft | 271 kts | 308° |
| 2026-04-21 19:57 | 25.09889 | 45.61255 | 17918 ft | 262 kts | 294° |
| 2026-04-21 19:58 | 25.10657 | 45.59452 | 17926 ft | 259 kts | 287° |
| 2026-04-21 19:58 | 25.11319 | 45.57613 | 17930 ft | 258 kts | 286° |
| 2026-04-21 19:58 | 25.12004 | 45.55783 | 17934 ft | 259 kts | 288° |
| 2026-04-21 19:58 | 25.12774 | 45.53983 | 17933 ft | 259 kts | 290° |
| 2026-04-21 19:59 | 25.13556 | 45.52191 | 17930 ft | 259 kts | 289° |
| 2026-04-21 19:59 | 25.14319 | 45.50389 | 17921 ft | 259 kts | 289° |
| 2026-04-21 19:59 | 25.15078 | 45.48583 | 17925 ft | 259 kts | 289° |
| 2026-04-21 19:59 | 25.15834 | 45.46781 | 17930 ft | 259 kts | 289° |
| 2026-04-21 20:00 | 25.16589 | 45.44979 | 17922 ft | 259 kts | 289° |
| 2026-04-21 20:00 | 25.17351 | 45.43178 | 17923 ft | 259 kts | 289° |
| 2026-04-21 20:00 | 25.18112 | 45.41380 | 17928 ft | 259 kts | 289° |
| 2026-04-21 20:00 | 25.18871 | 45.39582 | 17928 ft | 258 kts | 289° |
| 2026-04-21 20:01 | 25.19631 | 45.37784 | 17926 ft | 258 kts | 289° |
| 2026-04-21 20:01 | 25.20388 | 45.35988 | 17926 ft | 258 kts | 289° |
| 2026-04-21 20:01 | 25.21149 | 45.34186 | 17921 ft | 259 kts | 289° |
| 2026-04-21 20:01 | 25.21908 | 45.32385 | 17921 ft | 259 kts | 289° |
| 2026-04-21 20:02 | 25.22669 | 45.30579 | 17916 ft | 259 kts | 289° |
| 2026-04-21 20:02 | 25.23429 | 45.28776 | 17920 ft | 259 kts | 289° |
| 2026-04-21 20:02 | 25.24189 | 45.26970 | 17914 ft | 259 kts | 289° |
| 2026-04-21 20:02 | 25.24949 | 45.25165 | 17913 ft | 259 kts | 289° |
| 2026-04-21 20:03 | 25.25708 | 45.23363 | 17917 ft | 259 kts | 289° |
| 2026-04-21 20:03 | 25.26465 | 45.21560 | 17916 ft | 259 kts | 289° |
| 2026-04-21 20:03 | 25.27224 | 45.19755 | 17917 ft | 259 kts | 289° |
| 2026-04-21 20:03 | 25.27981 | 45.17954 | 17919 ft | 258 kts | 289° |
| 2026-04-21 20:04 | 25.28728 | 45.16176 | 17915 ft | 259 kts | 289° |
| 2026-04-21 20:04 | 25.29495 | 45.14350 | 17920 ft | 259 kts | 289° |
| 2026-04-21 20:04 | 25.30251 | 45.12548 | 17917 ft | 259 kts | 289° |
| 2026-04-21 20:04 | 25.31007 | 45.10744 | 17917 ft | 259 kts | 289° |
| 2026-04-21 20:05 | 25.31766 | 45.08937 | 17914 ft | 259 kts | 289° |
| 2026-04-21 20:05 | 25.32524 | 45.07129 | 17918 ft | 259 kts | 289° |
| 2026-04-21 20:05 | 25.33282 | 45.05320 | 17914 ft | 260 kts | 289° |
| 2026-04-21 20:05 | 25.34040 | 45.03511 | 17917 ft | 260 kts | 289° |
| 2026-04-21 20:06 | 25.34799 | 45.01698 | 17913 ft | 260 kts | 289° |
| 2026-04-21 20:06 | 25.35556 | 44.99890 | 17916 ft | 260 kts | 289° |
| 2026-04-21 20:06 | 25.36314 | 44.98080 | 17917 ft | 259 kts | 289° |
| 2026-04-21 20:06 | 25.37070 | 44.96268 | 17917 ft | 259 kts | 289° |
| 2026-04-21 20:07 | 25.37816 | 44.94483 | 17915 ft | 259 kts | 289° |
| 2026-04-21 20:07 | 25.38574 | 44.92672 | 17917 ft | 259 kts | 289° |
| 2026-04-21 20:07 | 25.39329 | 44.90864 | 17918 ft | 259 kts | 289° |
| 2026-04-21 20:07 | 25.40086 | 44.89051 | 17915 ft | 260 kts | 289° |
| 2026-04-21 20:08 | 25.40843 | 44.87238 | 17920 ft | 259 kts | 289° |
| 2026-04-21 20:08 | 25.41600 | 44.85425 | 17913 ft | 259 kts | 289° |
| 2026-04-21 20:08 | 25.42354 | 44.83615 | 17915 ft | 259 kts | 289° |
| 2026-04-21 20:08 | 25.43110 | 44.81803 | 17918 ft | 259 kts | 289° |
| 2026-04-21 20:09 | 25.43863 | 44.79992 | 17927 ft | 259 kts | 288° |
| 2026-04-21 20:09 | 25.44617 | 44.78182 | 17927 ft | 259 kts | 289° |
| 2026-04-21 20:09 | 25.45370 | 44.76374 | 17927 ft | 259 kts | 289° |
| 2026-04-21 20:09 | 25.46122 | 44.74567 | 17923 ft | 259 kts | 289° |
| 2026-04-21 20:10 | 25.46875 | 44.72755 | 17925 ft | 259 kts | 289° |
| 2026-04-21 20:10 | 25.47629 | 44.70943 | 17933 ft | 259 kts | 289° |
| 2026-04-21 20:10 | 25.48381 | 44.69130 | 17935 ft | 260 kts | 288° |
| 2026-04-21 20:10 | 25.49134 | 44.67317 | 17933 ft | 259 kts | 289° |
| 2026-04-21 20:11 | 25.49886 | 44.65506 | 17932 ft | 259 kts | 289° |
| 2026-04-21 20:11 | 25.50639 | 44.63693 | 17932 ft | 259 kts | 289° |
| 2026-04-21 20:11 | 25.51392 | 44.61881 | 17933 ft | 259 kts | 288° |
| 2026-04-21 20:11 | 25.52145 | 44.60068 | 17927 ft | 259 kts | 288° |
| 2026-04-21 20:12 | 25.52970 | 44.58284 | 17938 ft | 264 kts | 295° |
| 2026-04-21 20:12 | 25.54089 | 44.56646 | 17941 ft | 270 kts | 304° |
| 2026-04-21 20:12 | 25.55457 | 44.55187 | 17939 ft | 274 kts | 309° |
| 2026-04-21 20:12 | 25.56855 | 44.53753 | 17939 ft | 274 kts | 309° |
| 2026-04-21 20:13 | 25.58288 | 44.52356 | 17944 ft | 279 kts | 316° |
| 2026-04-21 20:13 | 25.59974 | 44.51230 | 17943 ft | 285 kts | 323° |
| 2026-04-21 20:13 | 25.61733 | 44.50204 | 17941 ft | 286 kts | 324° |
| 2026-04-21 20:13 | 25.63507 | 44.49194 | 17941 ft | 287 kts | 324° |
| 2026-04-21 20:14 | 25.65287 | 44.48188 | 17938 ft | 287 kts | 324° |
| 2026-04-21 20:14 | 25.67066 | 44.47186 | 17943 ft | 287 kts | 324° |
| 2026-04-21 20:14 | 25.68845 | 44.46180 | 17940 ft | 287 kts | 324° |
| 2026-04-21 20:14 | 25.70626 | 44.45175 | 17936 ft | 287 kts | 324° |
| 2026-04-21 20:15 | 25.72419 | 44.44162 | 17795 ft | 292 kts | 324° |
| 2026-04-21 20:15 | 25.74246 | 44.43128 | 17531 ft | 297 kts | 324° |
| 2026-04-21 20:15 | 25.76102 | 44.42074 | 17231 ft | 301 kts | 325° |
| 2026-04-21 20:15 | 25.77972 | 44.41007 | 16930 ft | 303 kts | 324° |
| 2026-04-21 20:16 | 25.79823 | 44.39942 | 16635 ft | 304 kts | 325° |
| 2026-04-21 20:16 | 25.81722 | 44.38844 | 16331 ft | 303 kts | 325° |
| 2026-04-21 20:16 | 25.83563 | 44.37774 | 16028 ft | 295 kts | 325° |
| 2026-04-21 20:16 | 25.85363 | 44.36736 | 15722 ft | 290 kts | 325° |
| 2026-04-21 20:17 | 25.87135 | 44.35698 | 15419 ft | 287 kts | 324° |
| 2026-04-21 20:17 | 25.88868 | 44.34669 | 15106 ft | 285 kts | 324° |
| 2026-04-21 20:17 | 25.90637 | 44.33617 | 14770 ft | 285 kts | 324° |
| 2026-04-21 20:17 | 25.92384 | 44.32587 | 14448 ft | 284 kts | 325° |
| 2026-04-21 20:18 | 25.93535 | 44.31902 | 14228 ft | 283 kts | 325° |
| 2026-04-21 20:18 | 25.95820 | 44.30516 | 13792 ft | 282 kts | 324° |
| 2026-04-21 20:18 | 25.97540 | 44.29467 | 13469 ft | 281 kts | 324° |
| 2026-04-21 20:18 | 25.99249 | 44.28422 | 13141 ft | 280 kts | 325° |
| 2026-04-21 20:19 | 26.00949 | 44.27375 | 12815 ft | 279 kts | 324° |
| 2026-04-21 20:19 | 26.02557 | 44.26208 | 12478 ft | 274 kts | 317° |
| 2026-04-21 20:19 | 26.04046 | 44.24903 | 12148 ft | 272 kts | 315° |
| 2026-04-21 20:19 | 26.05508 | 44.23570 | 11799 ft | 271 kts | 315° |
| 2026-04-21 20:20 | 26.06959 | 44.22229 | 11446 ft | 271 kts | 315° |
| 2026-04-21 20:20 | 26.08397 | 44.20871 | 11093 ft | 270 kts | 315° |
| 2026-04-21 20:20 | 26.09811 | 44.19501 | 10741 ft | 270 kts | 315° |
| 2026-04-21 20:20 | 26.11215 | 44.18119 | 10389 ft | 269 kts | 315° |
| 2026-04-21 20:21 | 26.12601 | 44.16723 | 9998 ft | 268 kts | 315° |
| 2026-04-21 20:21 | 26.13949 | 44.15332 | 9543 ft | 262 kts | 315° |
| 2026-04-21 20:21 | 26.15260 | 44.13934 | 9095 ft | 259 kts | 315° |
| 2026-04-21 20:21 | 26.16533 | 44.12537 | 8708 ft | 256 kts | 315° |
| 2026-04-21 20:22 | 26.17774 | 44.11135 | 8400 ft | 252 kts | 315° |
| 2026-04-21 20:22 | 26.20260 | 44.08278 | 7910 ft | 263 kts | 315° |
| 2026-04-21 20:22 | 26.21545 | 44.06791 | 7652 ft | 264 kts | 315° |
| 2026-04-21 20:23 | 26.22795 | 44.05332 | 7404 ft | 264 kts | 315° |
| 2026-04-21 20:23 | 26.24075 | 44.03828 | 7145 ft | 265 kts | 315° |
| 2026-04-21 20:23 | 26.25337 | 44.02336 | 6923 ft | 263 kts | 315° |
| 2026-04-21 20:23 | 26.26580 | 44.00844 | 6707 ft | 263 kts | 315° |
| 2026-04-21 20:24 | 26.27821 | 43.99348 | 6469 ft | 263 kts | 315° |
| 2026-04-21 20:24 | 26.29055 | 43.97854 | 6252 ft | 262 kts | 315° |
| 2026-04-21 20:24 | 26.30286 | 43.96349 | 6027 ft | 262 kts | 315° |
| 2026-04-21 20:24 | 26.31508 | 43.94844 | 5799 ft | 262 kts | 315° |
| 2026-04-21 20:25 | 26.32728 | 43.93335 | 5572 ft | 262 kts | 315° |
| 2026-04-21 20:25 | 26.33938 | 43.91836 | 5344 ft | 257 kts | 315° |
| 2026-04-21 20:25 | 26.35123 | 43.90364 | 5114 ft | 253 kts | 314° |
| 2026-04-21 20:25 | 26.36291 | 43.88907 | 5008 ft | 248 kts | 314° |
| 2026-04-21 20:26 | 26.37422 | 43.87496 | 5003 ft | 241 kts | 315° |
| 2026-04-21 20:26 | 26.38664 | 43.86314 | 5010 ft | 235 kts | 329° |
| 2026-04-21 20:26 | 26.40069 | 43.85353 | 5009 ft | 233 kts | 332° |
| 2026-04-21 20:26 | 26.41472 | 43.84444 | 4967 ft | 234 kts | 332° |
| 2026-04-21 20:27 | 26.42864 | 43.83549 | 4897 ft | 235 kts | 333° |
| 2026-04-21 20:27 | 26.44282 | 43.82642 | 4821 ft | 236 kts | 333° |
| 2026-04-21 20:27 | 26.45706 | 43.81728 | 4745 ft | 236 kts | 332° |
| 2026-04-21 20:27 | 26.47110 | 43.80829 | 4667 ft | 227 kts | 333° |
| 2026-04-21 20:28 | 26.48453 | 43.79957 | 4588 ft | 221 kts | 332° |
| 2026-04-21 20:28 | 26.49772 | 43.79098 | 4510 ft | 218 kts | 332° |
| 2026-04-21 20:28 | 26.51078 | 43.78244 | 4506 ft | 218 kts | 332° |
| 2026-04-21 20:28 | 26.52338 | 43.77302 | 4490 ft | 221 kts | 318° |
| 2026-04-21 20:29 | 26.53070 | 43.75792 | 4492 ft | 226 kts | 285° |
| 2026-04-21 20:29 | 26.52967 | 43.74040 | 4495 ft | 231 kts | 253° |
| 2026-04-21 20:29 | 26.52304 | 43.72398 | 4497 ft | 232 kts | 245° |
| 2026-04-21 20:29 | 26.51599 | 43.70867 | 4515 ft | 213 kts | 244° |
| 2026-04-21 20:30 | 26.50922 | 43.69435 | 4512 ft | 205 kts | 243° |
| 2026-04-21 20:30 | 26.49948 | 43.68321 | 4492 ft | 203 kts | 208° |
| 2026-04-21 20:30 | 26.48594 | 43.67962 | 4498 ft | 200 kts | 185° |
| 2026-04-21 20:30 | 26.47219 | 43.67942 | 4496 ft | 196 kts | 169° |
| 2026-04-21 20:31 | 26.45942 | 43.68451 | 4494 ft | 195 kts | 153° |
| 2026-04-21 20:31 | 26.44721 | 43.69118 | 4498 ft | 195 kts | 151° |
| 2026-04-21 20:31 | 26.43527 | 43.69804 | 4496 ft | 189 kts | 151° |
| 2026-04-21 20:31 | 26.42384 | 43.70469 | 4471 ft | 184 kts | 150° |
| 2026-04-21 20:32 | 26.41238 | 43.71133 | 4265 ft | 186 kts | 151° |
| 2026-04-21 20:32 | 26.40084 | 43.71787 | 4023 ft | 186 kts | 151° |
| 2026-04-21 20:32 | 26.38944 | 43.72449 | 3790 ft | 171 kts | 151° |
| 2026-04-21 20:32 | 26.38036 | 43.72966 | 3587 ft | 132 kts | 150° |
| 2026-04-21 20:33 | 26.37246 | 43.73426 | 3413 ft | 125 kts | 150° |
| 2026-04-21 20:33 | 26.36479 | 43.73865 | 3248 ft | 123 kts | 150° |
| 2026-04-21 20:33 | 26.35721 | 43.74297 | 3085 ft | 122 kts | 150° |
| 2026-04-21 20:33 | 26.34973 | 43.74731 | 2925 ft | 124 kts | 150° |
| 2026-04-21 20:34 | 26.34217 | 43.75162 | 2789 ft | 120 kts | 150° |
| 2026-04-21 20:34 | 26.33481 | 43.75583 | 2613 ft | 118 kts | 149° |
| 2026-04-21 20:34 | 26.32757 | 43.76006 | 2451 ft | 117 kts | 150° |
| 2026-04-21 20:34 | 26.32050 | 43.76405 | 2285 ft | 111 kts | 151° |
| 2026-04-21 20:35 | 26.31381 | 43.76790 | 2157 ft | 105 kts | 151° |
| 2026-04-21 20:35 | 26.30822 | 43.77110 | 2130 ft | 75 kts | 157° |
| 2026-04-21 20:35 | 26.30666 | 43.77154 | 2132 ft | 12 kts | 235° |
| 2026-04-21 20:35 | 26.30640 | 43.77104 | 2132 ft | 8 kts | 241° |
| 2026-04-21 20:36 | 26.30622 | 43.77063 | 2132 ft | 9 kts | 243° |
| 2026-04-21 20:36 | 26.30597 | 43.76996 | 2131 ft | 9 kts | 281° |
| 2026-04-21 20:36 | 26.30654 | 43.76949 | 2131 ft | 12 kts | 335° |
| 2026-04-21 20:36 | 26.30724 | 43.76913 | 2131 ft | 8 kts | 336° |
| 2026-04-21 20:37 | 26.30731 | 43.76870 | 2132 ft | 8 kts | 246° |
| 2026-04-21 20:37 | 26.30707 | 43.76819 | 2132 ft | 0 kts | 241° |